Time;durP1;ratioP1;P1;durP2;ratioP2;P2;SDS_P1;SDS_P2;PMS_P1;PMS_P2;Temp;Humidity;BMP_temperature;BMP_pressure;BME280_temperature;BME280_humidity;BME280_pressure;Samples;Min_cycle;Max_cycle;Signal;HPM_P1;HPM_P2
2022/03/31 05:02:14;;;;;;;3.50;1.30;;;;;;;19.30;44.33;97142.94;1927768;72;27970;-63
2022/03/31 05:05:03;;;;;;;4.78;1.70;;;;;;;19.66;43.03;97152.54;1891863;75;28123;-64
2022/03/31 05:07:52;;;;;;;2.77;1.60;;;;;;;19.97;40.73;97156.90;1891507;75;28089;-62
2022/03/31 05:10:41;;;;;;;2.70;1.60;;;;;;;20.26;39.28;97152.52;1884994;75;38647;-61
2022/03/31 05:13:29;;;;;;;1.87;1.20;;;;;;;20.82;38.92;97159.19;1882606;75;28052;-61
2022/03/31 05:16:17;;;;;;;1.02;0.93;;;;;;;21.29;38.59;97141.75;1880704;75;28126;-60
2022/03/31 05:19:05;;;;;;;1.30;1.20;;;;;;;21.68;38.11;97147.23;1878951;75;28196;-61
2022/03/31 05:21:54;;;;;;;1.77;1.17;;;;;;;22.00;37.58;97150.27;1869521;76;28137;-62
2022/03/31 05:24:42;;;;;;;1.95;1.35;;;;;;;22.24;37.06;97138.02;1869809;76;28155;-61
2022/03/31 05:27:31;;;;;;;1.30;1.20;;;;;;;22.45;36.67;97148.44;1891392;75;28175;-61
2022/03/31 05:30:20;;;;;;;1.33;1.23;;;;;;;22.63;36.28;97146.38;1869787;76;28183;-61
2022/03/31 05:33:11;;;;;;;2.37;1.30;;;;;;;22.77;36.01;97145.12;1884869;75;28054;-61
2022/03/31 05:36:01;;;;;;;1.82;1.10;;;;;;;22.89;35.74;97142.78;1892343;75;28160;-61
2022/03/31 05:38:50;;;;;;;1.22;1.12;;;;;;;22.98;35.49;97142.39;1896435;75;28023;-61
2022/03/31 05:41:38;;;;;;;1.05;0.95;;;;;;;23.09;35.33;97136.20;1881162;75;28111;-63
2022/03/31 05:44:26;;;;;;;1.00;1.00;;;;;;;23.17;35.14;97135.02;1869444;76;28094;-62
2022/03/31 05:47:15;;;;;;;1.50;1.12;;;;;;;23.25;34.98;97134.89;1881914;75;28121;-63
2022/03/31 05:50:04;;;;;;;1.27;1.20;;;;;;;23.22;34.94;97123.17;1895217;75;28104;-61
2022/03/31 05:52:53;;;;;;;1.45;1.15;;;;;;;23.34;34.95;97139.44;1898273;75;28026;-61
2022/03/31 05:55:43;;;;;;;1.77;1.20;;;;;;;23.38;34.95;97141.84;1882803;75;28104;-60
2022/03/31 05:58:31;;;;;;;1.72;1.40;;;;;;;23.41;34.88;97142.38;1872198;75;28029;-61
2022/03/31 06:01:22;;;;;;;3.10;1.25;;;;;;;23.45;34.85;97143.41;1891949;74;28096;-60
2022/03/31 06:04:10;;;;;;;3.08;1.30;;;;;;;23.50;34.76;97144.70;1857916;76;28106;-60
2022/03/31 06:06:59;;;;;;;3.27;1.30;;;;;;;23.53;34.74;97144.09;1857663;76;28249;-61
2022/03/31 06:09:48;;;;;;;1.50;1.20;;;;;;;23.57;34.72;97152.00;1898971;75;30956;-61
2022/03/31 06:12:37;;;;;;;3.50;1.40;;;;;;;23.54;34.72;97145.73;1886264;75;28028;-60
2022/03/31 06:15:27;;;;;;;1.72;1.20;;;;;;;23.56;34.64;97146.25;1882920;75;34027;-61
2022/03/31 06:18:16;;;;;;;1.52;1.15;;;;;;;23.58;34.64;97146.77;1874959;75;28152;-61
2022/03/31 06:21:05;;;;;;;6.47;1.80;;;;;;;23.62;34.62;97147.82;1885573;75;28447;-61
2022/03/31 06:23:53;;;;;;;6.75;1.50;;;;;;;23.62;34.61;97149.98;1860331;75;28112;-63
2022/03/31 06:26:42;;;;;;;1.42;1.10;;;;;;;23.62;34.60;97145.08;1884142;75;28061;-64
2022/03/31 06:29:30;;;;;;;3.50;1.50;;;;;;;23.62;34.93;97151.93;1880227;75;28599;-62
2022/03/31 06:32:19;;;;;;;2.90;1.40;;;;;;;23.61;35.66;97157.14;1895569;75;28130;-63
2022/03/31 06:35:14;;;;;;;2.35;1.35;;;;;;;23.63;35.59;97157.66;1857247;77;28152;-61
2022/03/31 06:37:59;;;;;;;2.83;1.25;;;;;;;23.61;35.88;97159.88;1871709;75;28173;-61
2022/03/31 06:41:06;;;;;;;2.55;1.40;;;;;;;23.64;36.05;97162.03;1888615;75;28066;-60
2022/03/31 06:43:44;;;;;;;5.20;1.10;;;;;;;23.64;36.08;97164.20;1886077;75;28130;-61
2022/03/31 06:46:32;;;;;;;2.85;1.10;;;;;;;23.68;36.14;97162.52;1877442;75;28063;-62
2022/03/31 06:49:21;;;;;;;3.70;1.40;;;;;;;23.66;36.28;97159.80;1872006;75;28085;-62
2022/03/31 06:52:10;;;;;;;4.80;1.40;;;;;;;23.69;36.36;97159.19;1883457;75;28162;-62
2022/03/31 06:55:00;;;;;;;2.58;1.30;;;;;;;23.70;36.44;97163.02;1879867;75;28209;-61
2022/03/31 06:57:48;;;;;;;4.17;1.70;;;;;;;23.68;36.47;97159.77;1888739;75;28147;-62
2022/03/31 07:00:37;;;;;;;4.42;1.50;;;;;;;23.71;36.43;97163.27;1877104;75;28193;-62
2022/03/31 07:03:26;;;;;;;5.00;1.90;;;;;;;23.72;36.40;97161.34;1870798;76;28235;-62
2022/03/31 07:06:14;;;;;;;1.40;1.20;;;;;;;23.71;36.38;97152.88;1900073;74;28085;-62
2022/03/31 07:09:04;;;;;;;4.62;1.55;;;;;;;23.73;36.42;97161.62;1896294;74;28032;-62
2022/03/31 07:11:53;;;;;;;5.00;1.80;;;;;;;23.73;36.39;97154.22;1901335;74;28049;-62
2022/03/31 07:14:41;;;;;;;1.57;1.30;;;;;;;23.75;36.34;97156.09;1889415;74;28039;-62
2022/03/31 07:17:30;;;;;;;2.42;1.40;;;;;;;23.79;36.26;97160.41;1910879;74;28064;-63
2022/03/31 07:20:19;;;;;;;2.37;1.43;;;;;;;23.76;36.29;97155.52;1893881;74;28016;-62
2022/03/31 07:23:07;;;;;;;1.75;1.30;;;;;;;23.74;36.29;97164.59;1900320;74;28223;-62
2022/03/31 07:25:59;;;;;;;2.40;1.27;;;;;;;23.66;36.35;97156.52;1899453;74;28172;-62
2022/03/31 07:28:47;;;;;;;2.37;1.30;;;;;;;23.73;36.28;97165.73;1880084;74;28281;-61
2022/03/31 07:31:36;;;;;;;2.43;1.30;;;;;;;23.71;36.30;97166.59;1878445;76;28694;-61
2022/03/31 07:34:25;;;;;;;1.62;1.35;;;;;;;23.72;36.25;97176.42;1889443;74;28045;-63
2022/03/31 07:37:13;;;;;;;2.37;1.43;;;;;;;23.72;36.25;97170.94;1883488;74;28140;-61
2022/03/31 07:40:03;;;;;;;2.98;1.45;;;;;;;23.71;36.23;97167.95;1898263;74;28037;-61
2022/03/31 07:42:51;;;;;;;1.65;1.20;;;;;;;23.73;36.20;97167.92;1892769;74;28084;-61
2022/03/31 07:45:40;;;;;;;1.90;1.25;;;;;;;23.72;36.15;97172.31;1889041;74;28067;-61
2022/03/31 07:48:28;;;;;;;2.17;1.20;;;;;;;23.72;36.13;97166.28;1890327;74;28171;-63
2022/03/31 07:51:16;;;;;;;3.40;1.42;;;;;;;23.73;36.12;97167.10;1907125;74;28044;-61
2022/03/31 07:54:04;;;;;;;1.65;1.15;;;;;;;23.72;36.09;97173.68;1890808;74;28041;-62
2022/03/31 07:56:53;;;;;;;1.50;0.90;;;;;;;23.71;36.09;97172.86;1904979;74;28092;-61
2022/03/31 07:59:41;;;;;;;1.35;0.90;;;;;;;23.73;36.06;97169.84;1889050;74;28095;-61
2022/03/31 08:02:30;;;;;;;1.50;0.88;;;;;;;23.74;36.02;97159.12;1878532;76;28694;-61
2022/03/31 08:05:21;;;;;;;0.90;0.90;;;;;;;23.71;35.98;97166.00;1888320;74;28158;-63
2022/03/31 08:08:09;;;;;;;2.52;0.95;;;;;;;23.71;35.98;97166.00;1895657;74;28624;-64
2022/03/31 08:10:57;;;;;;;1.50;0.90;;;;;;;23.71;35.97;97166.59;1900685;74;28065;-62
2022/03/31 08:13:46;;;;;;;1.67;0.98;;;;;;;23.71;35.90;97170.70;1911241;74;31017;-61
2022/03/31 08:16:34;;;;;;;2.00;1.00;;;;;;;23.74;35.89;97164.59;1888933;74;27985;-61
2022/03/31 08:19:23;;;;;;;2.77;1.10;;;;;;;23.73;35.89;97172.58;1886076;74;28244;-62
2022/03/31 08:22:11;;;;;;;1.20;1.10;;;;;;;23.74;35.86;97164.05;1897216;74;28016;-62
2022/03/31 08:25:00;;;;;;;1.90;1.00;;;;;;;23.75;35.82;97165.69;1890683;74;28107;-62
2022/03/31 08:27:49;;;;;;;0.97;0.97;;;;;;;23.74;35.81;97171.45;1889222;74;28059;-62
2022/03/31 08:30:38;;;;;;;0.98;0.90;;;;;;;23.76;35.75;97165.11;1891559;74;28178;-61
2022/03/31 08:33:27;;;;;;;0.80;0.80;;;;;;;23.76;35.73;97167.85;1891693;74;28153;-62
2022/03/31 08:36:15;;;;;;;1.82;0.90;;;;;;;23.75;35.69;97162.95;1878383;74;28126;-62
2022/03/31 08:39:05;;;;;;;1.70;1.00;;;;;;;23.76;35.71;97165.11;1908720;74;28081;-63
2022/03/31 08:41:54;;;;;;;1.00;0.80;;;;;;;23.78;35.63;97164.28;1889057;74;28098;-61
2022/03/31 08:44:43;;;;;;;0.93;0.93;;;;;;;23.75;35.61;97171.17;1892626;74;28149;-62
2022/03/31 08:47:32;;;;;;;0.90;0.90;;;;;;;23.76;35.61;97166.48;1890916;74;28028;-62
2022/03/31 08:50:23;;;;;;;0.83;0.83;;;;;;;23.75;35.60;97167.61;1889605;74;27989;-62
2022/03/31 08:53:11;;;;;;;0.82;0.82;;;;;;;23.73;35.59;97165.18;1900336;74;27989;-61
2022/03/31 08:56:00;;;;;;;1.40;0.90;;;;;;;23.75;35.58;97165.69;1888823;74;28012;-61
2022/03/31 08:58:49;;;;;;;3.33;1.10;;;;;;;23.76;35.52;97166.48;1890276;74;28085;-61
2022/03/31 09:01:39;;;;;;;1.07;0.98;;;;;;;23.75;35.50;97163.50;1896440;74;28124;-61
2022/03/31 09:04:28;;;;;;;1.10;1.02;;;;;;;23.74;35.52;97170.08;1878721;74;28183;-62
2022/03/31 09:07:17;;;;;;;1.22;1.12;;;;;;;23.73;35.48;97166.55;1890334;74;34018;-61
2022/03/31 09:10:07;;;;;;;1.30;1.02;;;;;;;23.77;35.47;97169.50;1889049;74;28071;-61
2022/03/31 09:12:56;;;;;;;1.57;1.20;;;;;;;23.75;35.46;97164.32;1900238;74;28095;-61
2022/03/31 09:15:50;;;;;;;1.85;1.00;;;;;;;23.74;35.42;97166.79;1899208;74;28154;-62
2022/03/31 09:18:42;;;;;;;1.00;1.00;;;;;;;23.73;35.42;97169.84;1895529;74;28628;-62
2022/03/31 09:21:31;;;;;;;2.83;0.93;;;;;;;23.70;35.41;97159.46;1890970;74;28061;-62
2022/03/31 09:24:21;;;;;;;1.52;1.10;;;;;;;23.75;35.40;97173.09;1889090;74;28128;-61
2022/03/31 09:27:10;;;;;;;1.47;1.05;;;;;;;23.72;35.38;97177.24;1909895;74;28128;-62
2022/03/31 09:30:06;;;;;;;1.07;1.03;;;;;;;23.71;35.39;97182.45;1895346;74;28105;-62
2022/03/31 09:32:55;;;;;;;1.22;1.10;;;;;;;23.73;35.38;97194.52;1898597;74;28865;-62
2022/03/31 09:35:45;;;;;;;2.00;1.15;;;;;;;23.73;35.31;97196.70;1900182;74;28109;-61
2022/03/31 09:38:37;;;;;;;0.90;0.90;;;;;;;23.72;35.34;97199.17;1899867;74;28062;-62
2022/03/31 09:41:28;;;;;;;1.72;1.22;;;;;;;23.74;35.31;97200.23;1880010;74;28141;-62
2022/03/31 09:44:25;;;;;;;1.90;1.20;;;;;;;23.70;35.31;97194.55;1878676;74;28152;-61
2022/03/31 09:47:13;;;;;;;1.65;1.30;;;;;;;23.73;35.30;97195.88;1886871;74;28148;-62
2022/03/31 09:50:02;;;;;;;2.00;1.30;;;;;;;23.72;35.29;97192.87;1889720;74;28126;-62
2022/03/31 09:52:51;;;;;;;1.20;1.20;;;;;;;23.74;35.25;97190.64;1897285;74;28620;-61
2022/03/31 09:55:41;;;;;;;2.45;1.27;;;;;;;23.74;35.21;97187.34;1885705;74;28091;-62
2022/03/31 09:58:33;;;;;;;2.20;1.20;;;;;;;23.74;35.17;97183.78;1900354;74;28150;-61
2022/03/31 10:01:20;;;;;;;1.45;1.12;;;;;;;23.74;35.13;97179.13;1890338;74;28057;-62
2022/03/31 10:04:12;;;;;;;2.58;1.20;;;;;;;23.75;35.12;97179.95;1897370;74;28093;-62
2022/03/31 10:07:02;;;;;;;1.42;1.35;;;;;;;23.78;35.12;97177.98;1880598;74;28293;-62
2022/03/31 10:09:51;;;;;;;1.30;1.20;;;;;;;23.78;35.03;97164.28;1890796;75;28167;-62
2022/03/31 10:12:58;;;;;;;1.35;1.25;;;;;;;23.78;35.01;97167.02;1859230;75;28178;-61
2022/03/31 10:15:48;;;;;;;1.87;1.45;;;;;;;23.79;35.00;97165.34;1874314;75;28033;-61
2022/03/31 10:18:37;;;;;;;1.60;1.50;;;;;;;23.79;35.01;97164.52;1901652;75;35125;-61
2022/03/31 10:21:30;;;;;;;2.35;1.35;;;;;;;23.78;34.97;97165.07;1868526;75;28041;-61
2022/03/31 10:27:31;;;;;;;1.77;1.30;;;;;;;23.81;34.91;97170.52;1867662;75;28070;-62
2022/03/31 10:30:22;;;;;;;1.30;1.20;;;;;;;23.79;34.91;97169.45;1868208;75;28272;-62
2022/03/31 10:33:11;;;;;;;2.00;1.40;;;;;;;23.77;34.95;97167.58;1873125;75;28179;-62
2022/03/31 10:36:13;;;;;;;1.40;1.30;;;;;;;23.77;34.92;97165.38;1890779;75;28498;-62
2022/03/31 10:39:05;;;;;;;1.63;1.47;;;;;;;23.78;34.91;97173.87;1878701;75;28181;-62
2022/03/31 10:42:07;;;;;;;2.00;1.62;;;;;;;23.78;34.88;97166.44;1871088;75;28106;-62
2022/03/31 10:45:13;;;;;;;1.40;1.30;;;;;;;23.77;34.91;97170.87;1880119;75;28184;-62
2022/03/31 10:48:03;;;;;;;1.50;1.40;;;;;;;23.74;34.91;97164.05;1857411;77;28107;-61
2022/03/31 10:51:10;;;;;;;2.80;1.30;;;;;;;23.73;34.91;97171.21;1883106;75;28107;-62
2022/03/31 10:53:59;;;;;;;1.42;1.32;;;;;;;23.76;34.91;97166.48;1881126;75;28077;-62
2022/03/31 10:56:48;;;;;;;1.45;1.40;;;;;;;23.73;34.92;97158.33;1895320;75;28178;-61
2022/03/31 10:59:39;;;;;;;1.35;1.25;;;;;;;23.73;34.91;97166.55;1878849;75;28084;-62
2022/03/31 11:02:29;;;;;;;1.60;1.40;;;;;;;23.74;34.89;97175.56;1873925;75;28028;-62
2022/03/31 11:05:17;;;;;;;2.47;1.50;;;;;;;23.71;34.91;97172.06;1857232;77;28148;-62
2022/03/31 11:08:07;;;;;;;1.40;1.30;;;;;;;23.73;34.87;97172.58;1904310;74;28195;-62
2022/03/31 11:10:57;;;;;;;1.40;1.20;;;;;;;23.73;34.84;97172.58;1906593;74;28060;-62
2022/03/31 11:13:47;;;;;;;1.50;1.40;;;;;;;23.72;34.86;97161.34;1901328;74;28033;-62
2022/03/31 11:16:40;;;;;;;1.12;1.12;;;;;;;23.70;34.86;97166.31;1895446;74;28103;-62
2022/03/31 11:19:37;;;;;;;1.30;1.20;;;;;;;23.71;34.84;97159.16;1890096;74;28173;-62
2022/03/31 11:22:28;;;;;;;1.50;1.40;;;;;;;23.70;34.85;97160.83;1907120;74;28029;-62
2022/03/31 11:25:19;;;;;;;1.75;1.22;;;;;;;23.70;34.81;97160.83;1902994;74;28110;-62
2022/03/31 11:28:09;;;;;;;2.62;1.40;;;;;;;23.71;34.81;97161.89;1904818;74;28107;-61
2022/03/31 11:31:00;;;;;;;1.70;1.50;;;;;;;23.73;34.76;97161.07;1906870;74;28170;-62
2022/03/31 11:33:50;;;;;;;1.60;1.50;;;;;;;23.74;34.73;97157.20;1887317;74;28184;-62
2022/03/31 11:36:39;;;;;;;2.27;1.50;;;;;;;23.73;34.70;97155.59;1898393;74;28205;-61
2022/03/31 11:39:30;;;;;;;1.42;1.32;;;;;;;23.77;34.66;97155.23;1897921;74;28106;-61
2022/03/31 11:42:18;;;;;;;2.25;1.67;;;;;;;23.76;34.61;97151.41;1895799;74;28111;-61
2022/03/31 11:45:08;;;;;;;2.50;1.87;;;;;;;23.74;34.62;97145.41;1895370;74;28189;-62
2022/03/31 11:48:05;;;;;;;2.10;1.70;;;;;;;23.75;34.62;97146.50;1899440;74;28196;-61
2022/03/31 11:50:59;;;;;;;1.90;1.50;;;;;;;23.76;34.59;97142.63;1899180;74;28035;-62
2022/03/31 11:53:48;;;;;;;2.20;1.70;;;;;;;23.75;34.57;97138.83;1885673;74;28185;-62
2022/03/31 11:56:37;;;;;;;1.67;1.47;;;;;;;23.75;34.58;97131.98;1906965;74;28118;-62
2022/03/31 11:59:25;;;;;;;1.50;1.40;;;;;;;23.73;34.56;97134.20;1884901;74;28233;-62
2022/03/31 12:02:16;;;;;;;1.50;1.40;;;;;;;23.75;34.52;97129.23;1899696;74;28016;-62
2022/03/31 12:05:06;;;;;;;2.25;1.60;;;;;;;23.75;34.54;97136.09;1895565;74;28035;-62
2022/03/31 12:07:55;;;;;;;2.10;1.40;;;;;;;23.74;34.52;97133.89;1889833;74;28151;-61
2022/03/31 12:10:43;;;;;;;1.70;1.60;;;;;;;23.77;34.49;97135.23;1901768;75;28116;-62
2022/03/31 12:13:31;;;;;;;2.00;1.47;;;;;;;23.80;34.43;97137.38;1888140;75;28217;-62
2022/03/31 12:16:22;;;;;;;1.50;1.40;;;;;;;23.82;34.36;97137.89;1891173;75;28105;-62
2022/03/31 12:19:10;;;;;;;2.60;1.50;;;;;;;23.80;34.42;97133.27;1856939;76;28546;-62
2022/03/31 12:21:58;;;;;;;1.80;1.30;;;;;;;23.81;34.35;97136.25;1853734;76;28106;-62
2022/03/31 12:24:50;;;;;;;1.90;1.40;;;;;;;23.82;34.36;97125.55;1836203;77;28177;-61
2022/03/31 12:27:46;;;;;;;1.60;1.42;;;;;;;23.82;34.34;97126.38;1857202;76;28278;-61
2022/03/31 12:30:50;;;;;;;1.80;1.50;;;;;;;23.81;34.34;97117.88;1839070;76;28214;-61
2022/03/31 12:33:42;;;;;;;1.40;1.30;;;;;;;23.81;34.34;97123.36;1811732;76;28327;-62
2022/03/31 12:36:32;;;;;;;2.50;1.40;;;;;;;23.82;34.35;97122.81;1867575;76;28146;-61
2022/03/31 12:39:21;;;;;;;1.62;1.30;;;;;;;23.79;34.42;97128.88;1836036;77;28192;-63
2022/03/31 12:42:11;;;;;;;1.60;1.50;;;;;;;23.79;34.37;97123.41;1836109;77;28266;-61
2022/03/31 12:45:00;;;;;;;2.77;1.50;;;;;;;23.79;34.38;97123.41;1856826;76;28112;-64
2022/03/31 12:47:48;;;;;;;1.50;1.40;;;;;;;23.76;34.40;97122.62;1836174;77;28186;-63
2022/03/31 12:50:39;;;;;;;1.50;1.40;;;;;;;23.77;34.42;97125.63;1847715;76;28130;-63
2022/03/31 12:53:30;;;;;;;1.90;1.50;;;;;;;23.76;34.43;97133.59;1840219;76;28638;-62
2022/03/31 12:56:27;;;;;;;1.70;1.37;;;;;;;23.75;34.43;97133.34;1857108;76;28163;-62
2022/03/31 12:59:24;;;;;;;1.40;1.30;;;;;;;23.75;34.44;97140.20;1854952;76;28105;-61
2022/03/31 13:02:14;;;;;;;1.77;1.67;;;;;;;23.73;34.40;97143.25;1851346;76;28130;-61
2022/03/31 13:05:03;;;;;;;1.20;1.10;;;;;;;23.69;34.44;97150.42;1857371;76;28233;-61
2022/03/31 13:07:54;;;;;;;1.52;1.40;;;;;;;23.71;34.44;97154.25;1857237;76;28231;-62
2022/03/31 13:10:42;;;;;;;1.82;1.47;;;;;;;23.71;34.44;97159.16;1857269;76;28121;-63
2022/03/31 13:13:31;;;;;;;1.50;1.37;;;;;;;23.70;34.42;97165.77;1852484;76;28239;-62
2022/03/31 13:16:23;;;;;;;1.92;1.50;;;;;;;23.72;34.37;97160.80;1857100;76;28178;-62
2022/03/31 13:19:11;;;;;;;1.60;1.40;;;;;;;23.71;34.41;97155.63;1857167;76;28266;-62
2022/03/31 13:22:01;;;;;;;1.70;1.30;;;;;;;23.69;34.43;97168.23;1856960;76;28142;-62
2022/03/31 13:24:51;;;;;;;1.60;1.50;;;;;;;23.71;34.41;97161.89;1852253;76;28260;-62
2022/03/31 13:27:40;;;;;;;1.35;1.30;;;;;;;23.70;34.42;97153.98;1846685;76;28105;-62
2022/03/31 13:30:29;;;;;;;1.40;1.30;;;;;;;23.70;34.39;97160.83;1846861;76;32008;-62
2022/03/31 13:33:17;;;;;;;1.90;1.40;;;;;;;23.68;34.39;97161.14;1863766;76;28163;-61
2022/03/31 13:36:06;;;;;;;1.40;1.20;;;;;;;23.68;34.38;97157.58;1847255;76;28180;-62
2022/03/31 13:38:54;;;;;;;2.45;1.20;;;;;;;23.68;34.39;97165.80;1862170;76;28221;-61
2022/03/31 13:41:45;;;;;;;1.52;1.37;;;;;;;23.67;34.40;97167.72;1856827;76;28195;-62
2022/03/31 13:44:34;;;;;;;1.10;1.10;;;;;;;23.69;34.38;97171.52;1851864;76;28163;-62
2022/03/31 13:47:23;;;;;;;1.35;1.25;;;;;;;23.68;34.40;97169.36;1836065;77;28951;-61
2022/03/31 13:50:13;;;;;;;2.10;1.30;;;;;;;23.67;34.38;97170.46;1857645;76;30306;-61
2022/03/31 13:56:08;;;;;;;1.40;1.30;;;;;;;23.69;34.38;97177.00;1854414;76;28194;-61
2022/03/31 14:02:07;;;;;;;1.15;1.10;;;;;;;23.64;34.43;97182.59;1847523;76;28159;-63
2022/03/31 14:04:56;;;;;;;1.30;1.20;;;;;;;23.63;34.43;97187.80;1846404;76;28145;-62
2022/03/31 14:07:44;;;;;;;1.40;1.30;;;;;;;23.61;34.44;97191.40;1846420;76;28192;-61
2022/03/31 14:10:33;;;;;;;1.57;1.25;;;;;;;23.60;34.41;97198.80;1859932;75;28207;-63
2022/03/31 14:13:21;;;;;;;1.32;1.22;;;;;;;23.60;34.41;97196.61;1791661;78;28187;-62
2022/03/31 14:16:10;;;;;;;1.50;1.40;;;;;;;23.61;34.41;97188.66;1789011;78;28316;-62
2022/03/31 14:19:00;;;;;;;1.50;1.30;;;;;;;23.61;34.39;97190.03;1811066;78;31196;-62
2022/03/31 14:21:51;;;;;;;1.10;1.00;;;;;;;23.60;34.37;97185.64;1802964;78;28291;-61
2022/03/31 14:24:41;;;;;;;2.00;1.20;;;;;;;23.59;34.36;97179.92;1781616;80;28300;-62
2022/03/31 14:27:30;;;;;;;1.30;1.20;;;;;;;23.60;34.37;97180.98;1806025;78;28362;-64
2022/03/31 14:30:19;;;;;;;1.55;1.32;;;;;;;23.59;34.38;97184.85;1806174;78;28392;-62
2022/03/31 14:33:07;;;;;;;1.10;1.10;;;;;;;23.59;34.36;97179.92;1812508;78;28210;-61
2022/03/31 14:35:56;;;;;;;1.50;1.30;;;;;;;23.56;34.38;97191.47;1800380;78;28262;-62
2022/03/31 14:38:45;;;;;;;1.30;1.12;;;;;;;23.56;34.40;97188.17;1816919;78;28277;-62
2022/03/31 14:41:35;;;;;;;1.40;1.30;;;;;;;23.54;34.38;97188.21;1811444;78;28350;-62
2022/03/31 14:44:26;;;;;;;1.92;1.17;;;;;;;23.58;34.37;97201.57;1865174;75;28106;-62
2022/03/31 14:47:14;;;;;;;2.10;1.20;;;;;;;23.56;34.36;97195.58;1802110;78;28443;-62
2022/03/31 14:50:03;;;;;;;1.10;1.10;;;;;;;23.55;34.38;97198.08;1816579;78;28272;-62
2022/03/31 14:52:52;;;;;;;1.10;1.10;;;;;;;23.55;34.34;97198.08;1799729;79;28372;-62
2022/03/31 14:55:41;;;;;;;1.07;1.00;;;;;;;23.55;34.36;97183.00;1807861;78;28262;-61
2022/03/31 14:58:30;;;;;;;1.17;1.10;;;;;;;23.56;34.31;97198.31;1861531;75;28104;-62
2022/03/31 15:01:20;;;;;;;1.10;1.00;;;;;;;23.55;34.31;97192.02;1805080;77;28190;-62
2022/03/31 15:04:11;;;;;;;1.02;1.00;;;;;;;23.54;34.37;97182.19;1803862;78;28364;-62
2022/03/31 15:07:01;;;;;;;1.00;1.00;;;;;;;23.50;34.42;97188.55;1808948;78;28343;-62
2022/03/31 15:16:04;;;;;;;0.90;0.90;;;;;;;23.48;34.61;97181.98;1798208;78;28424;-62
2022/03/31 15:18:52;;;;;;;1.65;1.12;;;;;;;23.47;34.78;97189.13;1802816;78;28265;-63
2022/03/31 15:21:41;;;;;;;2.12;1.07;;;;;;;23.47;34.82;97194.06;1803437;78;32299;-62
2022/03/31 15:24:29;;;;;;;1.10;1.00;;;;;;;23.47;34.89;97186.39;1812567;78;28274;-62
2022/03/31 15:27:18;;;;;;;1.17;1.10;;;;;;;23.53;34.93;97192.05;1806162;78;28394;-62
2022/03/31 15:30:08;;;;;;;1.50;0.93;;;;;;;23.54;34.91;97195.88;1805515;78;28446;-63
2022/03/31 15:32:57;;;;;;;1.20;1.00;;;;;;;23.55;34.95;97193.97;1814578;78;28226;-62
2022/03/31 15:35:48;;;;;;;2.37;0.98;;;;;;;23.55;34.89;97189.27;1806044;78;28254;-62
2022/03/31 15:38:35;;;;;;;1.47;1.00;;;;;;;23.57;34.86;97195.27;1795812;78;28352;-63
2022/03/31 15:41:24;;;;;;;0.98;0.98;;;;;;;23.59;34.85;97186.77;1804706;78;28278;-63
2022/03/31 15:44:14;;;;;;;1.35;0.90;;;;;;;23.63;34.76;97186.43;1808419;78;28377;-63
2022/03/31 15:47:05;;;;;;;1.20;0.90;;;;;;;23.63;34.72;97193.28;1813827;78;28230;-62
2022/03/31 15:49:52;;;;;;;1.37;0.82;;;;;;;23.63;34.73;97204.24;1805819;78;28395;-64
2022/03/31 15:52:41;;;;;;;1.65;1.00;;;;;;;23.64;34.71;97196.30;1809886;78;28335;-64
2022/03/31 15:55:31;;;;;;;1.15;0.82;;;;;;;23.64;34.64;97203.94;1802535;78;28263;-61
2022/03/31 15:58:20;;;;;;;1.17;1.07;;;;;;;23.67;34.64;97208.02;1816245;78;28278;-62
2022/03/31 16:01:09;;;;;;;1.00;1.00;;;;;;;23.64;34.65;97216.27;1808245;78;32323;-62
2022/03/31 16:03:57;;;;;;;0.90;0.90;;;;;;;23.65;34.65;97211.61;1811223;78;28331;-64
2022/03/31 16:06:45;;;;;;;1.00;1.00;;;;;;;23.64;34.64;97213.53;1812177;78;28296;-62
2022/03/31 16:09:34;;;;;;;1.00;0.90;;;;;;;23.65;34.63;97217.91;1806910;78;28343;-63
2022/03/31 16:12:23;;;;;;;0.90;0.90;;;;;;;23.67;34.62;97206.64;1859305;75;28160;-61
2022/03/31 16:15:13;;;;;;;2.98;1.10;;;;;;;23.66;34.61;97224.22;1833758;77;28263;-62
2022/03/31 16:18:02;;;;;;;0.88;0.88;;;;;;;23.65;34.58;97222.58;1847703;76;38646;-62
2022/03/31 16:20:51;;;;;;;0.90;0.90;;;;;;;23.63;34.65;97220.14;1837771;77;28138;-62
2022/03/31 16:23:43;;;;;;;1.40;0.82;;;;;;;23.65;34.60;97222.02;1849940;76;28229;-61
2022/03/31 16:26:32;;;;;;;1.60;1.00;;;;;;;23.62;34.65;97221.23;1849998;76;28151;-61
2022/03/31 16:29:20;;;;;;;1.57;1.13;;;;;;;23.63;34.65;97231.10;1854832;76;28218;-62
2022/03/31 16:32:11;;;;;;;0.80;0.80;;;;;;;23.64;34.65;97231.92;1844850;77;28221;-62
2022/03/31 16:34:59;;;;;;;0.93;0.93;;;;;;;23.65;34.63;97226.69;1855780;76;28210;-62
2022/03/31 16:37:48;;;;;;;2.00;1.00;;;;;;;23.64;34.65;97225.86;1857448;76;28169;-62
2022/03/31 16:40:37;;;;;;;0.93;0.90;;;;;;;23.64;34.67;97240.15;1839303;77;28127;-62
2022/03/31 16:43:26;;;;;;;1.07;0.80;;;;;;;23.63;34.71;97243.98;1849399;76;28282;-62
2022/03/31 16:46:18;;;;;;;0.80;0.80;;;;;;;23.63;34.76;97253.03;1838590;77;28267;-62
2022/03/31 16:49:07;;;;;;;1.02;0.85;;;;;;;23.63;34.79;97249.47;1833953;77;28197;-61
2022/03/31 16:51:55;;;;;;;1.10;0.97;;;;;;;23.60;34.81;97243.20;1837309;76;28149;-61
2022/03/31 16:54:46;;;;;;;0.90;0.85;;;;;;;23.60;34.82;97249.50;1835518;77;31188;-61
2022/03/31 16:57:34;;;;;;;1.07;0.90;;;;;;;23.61;34.85;97259.91;1846137;76;28276;-62
2022/03/31 17:00:23;;;;;;;0.80;0.80;;;;;;;23.61;34.81;97268.14;1854165;76;33034;-62
2022/03/31 17:03:12;;;;;;;0.80;0.80;;;;;;;23.61;34.83;97269.51;1848152;76;28173;-62
2022/03/31 17:06:01;;;;;;;0.90;0.90;;;;;;;23.60;34.85;97263.20;1852675;76;28130;-62
2022/03/31 17:08:49;;;;;;;0.88;0.88;;;;;;;23.59;34.87;97250.63;1858501;76;28103;-62
2022/03/31 17:11:39;;;;;;;0.80;0.80;;;;;;;23.59;34.86;97250.63;1849453;77;32962;-62
2022/03/31 17:14:28;;;;;;;0.98;0.98;;;;;;;23.61;34.83;97253.06;1854079;76;32470;-61
2022/03/31 17:17:17;;;;;;;1.65;0.90;;;;;;;23.60;34.87;97255.53;1857069;76;28216;-62
2022/03/31 17:20:06;;;;;;;0.80;0.80;;;;;;;23.58;34.87;97244.88;1857805;76;28204;-62
2022/03/31 17:22:54;;;;;;;1.40;1.00;;;;;;;23.59;34.86;97247.89;1854725;76;28252;-61
2022/03/31 17:25:43;;;;;;;1.20;0.90;;;;;;;23.59;34.86;97256.66;1857252;76;28616;-62
2022/03/31 17:28:31;;;;;;;0.80;0.80;;;;;;;23.60;34.86;97251.42;1860483;76;28279;-62
2022/03/31 17:31:20;;;;;;;1.00;0.90;;;;;;;23.57;34.88;97245.97;1859063;76;28520;-64
2022/03/31 17:34:09;;;;;;;1.00;0.80;;;;;;;23.60;34.84;97240.45;1854153;76;28204;-64
2022/03/31 17:36:57;;;;;;;0.80;0.80;;;;;;;23.59;34.84;97235.55;1855596;76;37237;-64
2022/03/31 17:39:45;;;;;;;0.70;0.70;;;;;;;23.59;34.85;97237.47;1861635;76;28060;-62
2022/03/31 17:42:34;;;;;;;2.90;0.98;;;;;;;23.57;34.82;97224.05;1866917;76;28107;-62
2022/03/31 17:45:22;;;;;;;0.95;0.90;;;;;;;23.57;34.82;97240.48;1862259;76;28154;-64
2022/03/31 17:48:11;;;;;;;1.87;0.80;;;;;;;23.58;34.84;97253.64;1856675;76;28163;-62
2022/03/31 17:50:59;;;;;;;0.90;0.80;;;;;;;23.58;34.79;97252.27;1864805;76;35079;-62
2022/03/31 17:53:47;;;;;;;0.82;0.82;;;;;;;23.57;34.85;97260.25;1863207;76;28159;-62
2022/03/31 17:56:36;;;;;;;1.20;0.90;;;;;;;23.55;34.82;97254.25;1874999;76;28166;-62
2022/03/31 17:59:25;;;;;;;0.90;0.90;;;;;;;23.58;34.79;97257.75;1845969;76;28226;-62
2022/03/31 18:02:13;;;;;;;0.98;0.88;;;;;;;23.56;34.78;97266.83;1866254;76;28151;-62
2022/03/31 18:05:02;;;;;;;0.80;0.80;;;;;;;23.55;34.79;97268.75;1858446;76;28188;-62
2022/03/31 18:07:51;;;;;;;0.88;0.88;;;;;;;23.55;34.77;97263.84;1874035;76;28165;-62
2022/03/31 18:10:41;;;;;;;0.80;0.80;;;;;;;23.55;34.78;97270.12;1859526;76;28215;-63
2022/03/31 18:13:29;;;;;;;2.10;0.90;;;;;;;23.56;34.74;97281.91;1854332;76;28144;-63
2022/03/31 18:16:18;;;;;;;1.00;0.90;;;;;;;23.54;34.76;97273.16;1843450;76;28145;-62
2022/03/31 18:19:07;;;;;;;0.88;0.88;;;;;;;23.55;34.73;97280.29;1853001;76;28039;-64
2022/03/31 18:21:59;;;;;;;1.00;1.00;;;;;;;23.53;34.75;97278.37;1848182;76;28066;-64
2022/03/31 18:24:46;;;;;;;1.00;0.90;;;;;;;23.52;34.76;97281.69;1843531;76;28216;-62
2022/03/31 18:27:37;;;;;;;1.00;0.80;;;;;;;23.52;34.75;97286.34;1844985;76;28218;-62
2022/03/31 18:33:53;;;;;;;1.00;1.00;;;;;;;23.53;34.74;97290.70;1814605;78;28241;-64
2022/03/31 18:36:44;;;;;;;0.98;0.98;;;;;;;23.52;34.67;97287.72;1852137;76;28131;-63
2022/03/31 18:39:31;;;;;;;1.10;1.00;;;;;;;23.50;34.72;97296.79;1847348;76;28174;-62